Sparta, Canada
Current Conditions -  °F | °C
As of 5:00 AM on Sunday 21 Dec 2014 (Local Time) from CYXU Reporting Station
Overcast Overcast  
Wind Chill: 27°   Ceiling: 2600
Heat Index: 27°   Visibility: 7mi
Dew Point: 21°   Wind: 3mph
Humidity: 80%   Direction: 270°W
Pressure: 30.27"   Gusts: NA
Location:  42.7°N, 81.08°W
Report Text: CYXU 211000Z 27003KT 7SM OVC026 M03/M06 A3027 RMK SC8 SLP264
Loading
Personal Weather Stations






























Interactive Weather Map New forecast layout! Learn more

10-Day Weather Forecast

Advertisements
Track Severe Weather on mobile